sensor_id;sensor_type;location;lat;lon;timestamp;P1;durP1;ratioP1;P2;durP2;ratioP2
45318;SDS011;31057;48.498;32.260;2022-07-22T00:02:36;3.75;;;3.13;;
45318;SDS011;31057;48.498;32.260;2022-07-22T00:05:38;4.80;;;3.03;;
45318;SDS011;31057;48.498;32.260;2022-07-22T00:08:40;3.05;;;2.63;;
45318;SDS011;31057;48.498;32.260;2022-07-22T00:11:42;5.68;;;2.60;;
45318;SDS011;31057;48.498;32.260;2022-07-22T00:14:44;3.40;;;3.00;;
45318;SDS011;31057;48.498;32.260;2022-07-22T00:17:46;3.90;;;3.17;;
45318;SDS011;31057;48.498;32.260;2022-07-22T00:20:48;4.68;;;3.13;;
45318;SDS011;31057;48.498;32.260;2022-07-22T00:23:50;3.90;;;2.80;;
45318;SDS011;31057;48.498;32.260;2022-07-22T00:26:52;4.22;;;2.83;;
45318;SDS011;31057;48.498;32.260;2022-07-22T00:29:54;3.75;;;2.97;;
45318;SDS011;31057;48.498;32.260;2022-07-22T00:32:56;5.78;;;3.10;;
45318;SDS011;31057;48.498;32.260;2022-07-22T00:35:58;3.15;;;2.75;;
45318;SDS011;31057;48.498;32.260;2022-07-22T00:39:00;4.55;;;2.95;;
45318;SDS011;31057;48.498;32.260;2022-07-22T00:42:02;4.28;;;2.92;;
45318;SDS011;31057;48.498;32.260;2022-07-22T00:45:08;4.15;;;2.83;;
45318;SDS011;31057;48.498;32.260;2022-07-22T00:48:11;4.80;;;3.15;;
45318;SDS011;31057;48.498;32.260;2022-07-22T00:51:13;5.35;;;3.03;;
45318;SDS011;31057;48.498;32.260;2022-07-22T00:54:16;4.10;;;3.25;;
45318;SDS011;31057;48.498;32.260;2022-07-22T00:57:18;5.72;;;3.42;;
45318;SDS011;31057;48.498;32.260;2022-07-22T01:00:21;4.77;;;3.27;;
45318;SDS011;31057;48.498;32.260;2022-07-22T01:06:25;4.45;;;3.72;;
45318;SDS011;31057;48.498;32.260;2022-07-22T01:09:27;5.13;;;3.55;;
45318;SDS011;31057;48.498;32.260;2022-07-22T01:12:29;5.38;;;4.00;;
45318;SDS011;31057;48.498;32.260;2022-07-22T01:15:31;4.25;;;3.85;;
45318;SDS011;31057;48.498;32.260;2022-07-22T01:18:35;5.40;;;3.88;;
45318;SDS011;31057;48.498;32.260;2022-07-22T01:21:38;4.18;;;3.78;;
45318;SDS011;31057;48.498;32.260;2022-07-22T01:24:40;5.22;;;3.83;;
45318;SDS011;31057;48.498;32.260;2022-07-22T01:27:42;5.35;;;4.70;;
45318;SDS011;31057;48.498;32.260;2022-07-22T01:30:44;8.13;;;5.05;;
45318;SDS011;31057;48.498;32.260;2022-07-22T01:33:47;5.05;;;4.50;;
45318;SDS011;31057;48.498;32.260;2022-07-22T01:36:49;6.47;;;5.03;;
45318;SDS011;31057;48.498;32.260;2022-07-22T01:39:51;6.40;;;5.25;;
45318;SDS011;31057;48.498;32.260;2022-07-22T01:42:53;8.18;;;5.53;;
45318;SDS011;31057;48.498;32.260;2022-07-22T01:45:55;5.95;;;5.35;;
45318;SDS011;31057;48.498;32.260;2022-07-22T01:48:57;6.45;;;5.50;;
45318;SDS011;31057;48.498;32.260;2022-07-22T01:52:00;8.98;;;5.53;;
45318;SDS011;31057;48.498;32.260;2022-07-22T01:55:04;6.53;;;4.75;;
45318;SDS011;31057;48.498;32.260;2022-07-22T01:58:07;8.10;;;4.80;;
45318;SDS011;31057;48.498;32.260;2022-07-22T02:01:09;5.68;;;5.03;;
45318;SDS011;31057;48.498;32.260;2022-07-22T02:04:11;6.32;;;4.82;;
45318;SDS011;31057;48.498;32.260;2022-07-22T02:07:14;6.20;;;4.97;;
45318;SDS011;31057;48.498;32.260;2022-07-22T02:10:16;7.47;;;5.35;;
45318;SDS011;31057;48.498;32.260;2022-07-22T02:13:18;6.20;;;5.38;;
45318;SDS011;31057;48.498;32.260;2022-07-22T02:16:20;8.20;;;5.53;;
45318;SDS011;31057;48.498;32.260;2022-07-22T02:19:22;6.50;;;5.78;;
45318;SDS011;31057;48.498;32.260;2022-07-22T02:22:24;7.82;;;5.88;;
45318;SDS011;31057;48.498;32.260;2022-07-22T02:25:26;7.05;;;5.88;;
45318;SDS011;31057;48.498;32.260;2022-07-22T02:28:28;6.70;;;5.97;;
45318;SDS011;31057;48.498;32.260;2022-07-22T02:31:30;6.68;;;5.95;;
45318;SDS011;31057;48.498;32.260;2022-07-22T02:34:32;7.78;;;6.60;;
45318;SDS011;31057;48.498;32.260;2022-07-22T02:37:34;7.57;;;6.78;;
45318;SDS011;31057;48.498;32.260;2022-07-22T02:40:36;7.68;;;6.45;;
45318;SDS011;31057;48.498;32.260;2022-07-22T02:43:38;6.80;;;6.20;;
45318;SDS011;31057;48.498;32.260;2022-07-22T02:46:40;6.30;;;5.70;;
45318;SDS011;31057;48.498;32.260;2022-07-22T02:49:42;7.22;;;6.53;;
45318;SDS011;31057;48.498;32.260;2022-07-22T02:52:44;8.18;;;7.38;;
45318;SDS011;31057;48.498;32.260;2022-07-22T02:55:45;8.05;;;6.78;;
45318;SDS011;31057;48.498;32.260;2022-07-22T02:58:48;7.80;;;7.10;;
45318;SDS011;31057;48.498;32.260;2022-07-22T03:01:53;7.18;;;6.32;;
45318;SDS011;31057;48.498;32.260;2022-07-22T03:04:55;6.60;;;5.65;;
45318;SDS011;31057;48.498;32.260;2022-07-22T03:07:57;6.25;;;5.50;;
45318;SDS011;31057;48.498;32.260;2022-07-22T03:10:59;5.88;;;5.03;;
45318;SDS011;31057;48.498;32.260;2022-07-22T03:14:01;7.93;;;5.78;;
45318;SDS011;31057;48.498;32.260;2022-07-22T03:17:03;6.60;;;5.57;;
45318;SDS011;31057;48.498;32.260;2022-07-22T03:20:07;6.20;;;5.63;;
45318;SDS011;31057;48.498;32.260;2022-07-22T03:23:10;5.03;;;3.78;;
45318;SDS011;31057;48.498;32.260;2022-07-22T03:26:12;7.63;;;5.03;;
45318;SDS011;31057;48.498;32.260;2022-07-22T03:29:14;5.82;;;5.10;;
45318;SDS011;31057;48.498;32.260;2022-07-22T03:32:16;8.00;;;4.80;;
45318;SDS011;31057;48.498;32.260;2022-07-22T03:35:18;5.63;;;4.50;;
45318;SDS011;31057;48.498;32.260;2022-07-22T03:38:20;7.75;;;5.15;;
45318;SDS011;31057;48.498;32.260;2022-07-22T03:41:23;5.55;;;4.40;;
45318;SDS011;31057;48.498;32.260;2022-07-22T03:44:25;5.20;;;4.70;;
45318;SDS011;31057;48.498;32.260;2022-07-22T03:47:27;5.32;;;4.50;;
45318;SDS011;31057;48.498;32.260;2022-07-22T03:50:29;5.80;;;4.35;;
45318;SDS011;31057;48.498;32.260;2022-07-22T03:53:31;6.05;;;4.25;;
45318;SDS011;31057;48.498;32.260;2022-07-22T03:56:34;5.60;;;4.13;;
45318;SDS011;31057;48.498;32.260;2022-07-22T03:59:36;5.97;;;4.47;;
45318;SDS011;31057;48.498;32.260;2022-07-22T04:02:38;5.45;;;4.95;;
45318;SDS011;31057;48.498;32.260;2022-07-22T04:05:40;5.22;;;4.13;;
45318;SDS011;31057;48.498;32.260;2022-07-22T04:08:42;5.15;;;4.65;;
45318;SDS011;31057;48.498;32.260;2022-07-22T04:11:44;8.05;;;5.57;;
45318;SDS011;31057;48.498;32.260;2022-07-22T04:14:46;8.68;;;5.38;;
45318;SDS011;31057;48.498;32.260;2022-07-22T04:17:48;8.90;;;5.53;;
45318;SDS011;31057;48.498;32.260;2022-07-22T04:20:50;6.38;;;5.43;;
45318;SDS011;31057;48.498;32.260;2022-07-22T04:23:52;6.20;;;5.60;;
45318;SDS011;31057;48.498;32.260;2022-07-22T04:27:02;6.05;;;5.53;;
45318;SDS011;31057;48.498;32.260;2022-07-22T04:30:04;8.98;;;6.30;;
45318;SDS011;31057;48.498;32.260;2022-07-22T04:33:06;8.55;;;7.03;;
45318;SDS011;31057;48.498;32.260;2022-07-22T04:36:08;8.65;;;7.82;;
45318;SDS011;31057;48.498;32.260;2022-07-22T04:39:10;9.93;;;7.95;;
45318;SDS011;31057;48.498;32.260;2022-07-22T04:42:12;8.30;;;7.40;;
45318;SDS011;31057;48.498;32.260;2022-07-22T04:45:14;9.90;;;7.70;;
45318;SDS011;31057;48.498;32.260;2022-07-22T04:48:16;8.88;;;7.15;;
45318;SDS011;31057;48.498;32.260;2022-07-22T04:51:18;8.85;;;7.95;;
45318;SDS011;31057;48.498;32.260;2022-07-22T04:54:20;8.65;;;7.78;;
45318;SDS011;31057;48.498;32.260;2022-07-22T04:57:23;10.87;;;8.83;;
45318;SDS011;31057;48.498;32.260;2022-07-22T05:00:25;11.38;;;10.13;;
45318;SDS011;31057;48.498;32.260;2022-07-22T05:03:28;12.95;;;11.65;;
45318;SDS011;31057;48.498;32.260;2022-07-22T05:06:30;18.13;;;16.38;;
45318;SDS011;31057;48.498;32.260;2022-07-22T05:09:32;19.60;;;17.55;;
45318;SDS011;31057;48.498;32.260;2022-07-22T05:12:34;24.75;;;22.02;;
45318;SDS011;31057;48.498;32.260;2022-07-22T05:15:36;27.98;;;23.63;;
45318;SDS011;31057;48.498;32.260;2022-07-22T05:18:38;32.38;;;26.15;;
45318;SDS011;31057;48.498;32.260;2022-07-22T05:21:40;31.75;;;27.02;;
45318;SDS011;31057;48.498;32.260;2022-07-22T05:24:42;32.95;;;24.48;;
45318;SDS011;31057;48.498;32.260;2022-07-22T05:27:51;31.85;;;26.88;;
45318;SDS011;31057;48.498;32.260;2022-07-22T05:30:54;33.58;;;26.00;;
45318;SDS011;31057;48.498;32.260;2022-07-22T05:33:56;29.65;;;24.83;;
45318;SDS011;31057;48.498;32.260;2022-07-22T05:36:58;26.77;;;22.02;;
45318;SDS011;31057;48.498;32.260;2022-07-22T05:40:00;23.90;;;19.48;;
45318;SDS011;31057;48.498;32.260;2022-07-22T05:43:02;20.77;;;18.58;;
45318;SDS011;31057;48.498;32.260;2022-07-22T05:46:04;18.33;;;16.23;;
45318;SDS011;31057;48.498;32.260;2022-07-22T05:49:06;17.30;;;15.47;;
45318;SDS011;31057;48.498;32.260;2022-07-22T05:52:08;18.05;;;15.82;;
45318;SDS011;31057;48.498;32.260;2022-07-22T05:55:10;19.38;;;14.70;;
45318;SDS011;31057;48.498;32.260;2022-07-22T05:58:12;18.48;;;14.45;;
45318;SDS011;31057;48.498;32.260;2022-07-22T06:01:14;22.83;;;16.23;;
45318;SDS011;31057;48.498;32.260;2022-07-22T06:04:16;20.40;;;15.70;;
45318;SDS011;31057;48.498;32.260;2022-07-22T06:07:19;17.37;;;15.53;;
45318;SDS011;31057;48.498;32.260;2022-07-22T06:10:21;18.17;;;16.23;;
45318;SDS011;31057;48.498;32.260;2022-07-22T06:13:23;17.00;;;14.25;;
45318;SDS011;31057;48.498;32.260;2022-07-22T06:16:25;15.10;;;13.52;;
45318;SDS011;31057;48.498;32.260;2022-07-22T06:19:27;20.92;;;15.25;;
45318;SDS011;31057;48.498;32.260;2022-07-22T06:25:32;18.73;;;14.70;;
45318;SDS011;31057;48.498;32.260;2022-07-22T06:28:43;17.92;;;14.65;;
45318;SDS011;31057;48.498;32.260;2022-07-22T06:31:45;19.10;;;15.75;;
45318;SDS011;31057;48.498;32.260;2022-07-22T06:34:47;16.83;;;15.02;;
45318;SDS011;31057;48.498;32.260;2022-07-22T06:37:49;17.75;;;14.82;;
45318;SDS011;31057;48.498;32.260;2022-07-22T06:41:06;15.25;;;10.98;;
45318;SDS011;31057;48.498;32.260;2022-07-22T06:44:08;11.98;;;10.77;;
45318;SDS011;31057;48.498;32.260;2022-07-22T06:47:10;13.52;;;10.82;;
45318;SDS011;31057;48.498;32.260;2022-07-22T06:50:12;14.90;;;11.00;;
45318;SDS011;31057;48.498;32.260;2022-07-22T06:53:14;13.90;;;12.45;;
45318;SDS011;31057;48.498;32.260;2022-07-22T06:56:16;16.77;;;13.20;;
45318;SDS011;31057;48.498;32.260;2022-07-22T06:59:18;14.70;;;12.82;;
45318;SDS011;31057;48.498;32.260;2022-07-22T07:02:20;15.82;;;12.48;;
45318;SDS011;31057;48.498;32.260;2022-07-22T07:05:22;15.20;;;13.32;;
45318;SDS011;31057;48.498;32.260;2022-07-22T07:08:27;16.15;;;14.23;;
45318;SDS011;31057;48.498;32.260;2022-07-22T07:11:29;16.40;;;13.48;;
45318;SDS011;31057;48.498;32.260;2022-07-22T07:14:31;14.35;;;11.93;;
45318;SDS011;31057;48.498;32.260;2022-07-22T07:17:33;15.48;;;10.55;;
45318;SDS011;31057;48.498;32.260;2022-07-22T07:20:35;10.95;;;9.30;;
45318;SDS011;31057;48.498;32.260;2022-07-22T07:23:38;8.90;;;7.75;;
45318;SDS011;31057;48.498;32.260;2022-07-22T07:26:40;8.15;;;6.20;;
45318;SDS011;31057;48.498;32.260;2022-07-22T07:29:42;6.97;;;5.25;;
45318;SDS011;31057;48.498;32.260;2022-07-22T07:32:44;5.95;;;4.60;;
45318;SDS011;31057;48.498;32.260;2022-07-22T07:35:46;5.05;;;4.40;;
45318;SDS011;31057;48.498;32.260;2022-07-22T07:38:49;5.45;;;4.45;;
45318;SDS011;31057;48.498;32.260;2022-07-22T07:41:51;5.03;;;4.30;;
45318;SDS011;31057;48.498;32.260;2022-07-22T07:44:55;6.32;;;3.53;;
45318;SDS011;31057;48.498;32.260;2022-07-22T07:47:57;5.68;;;3.75;;
45318;SDS011;31057;48.498;32.260;2022-07-22T07:50:59;5.23;;;3.63;;
45318;SDS011;31057;48.498;32.260;2022-07-22T07:54:02;3.30;;;3.00;;
45318;SDS011;31057;48.498;32.260;2022-07-22T07:57:05;6.82;;;3.20;;
45318;SDS011;31057;48.498;32.260;2022-07-22T08:03:12;4.13;;;2.80;;
45318;SDS011;31057;48.498;32.260;2022-07-22T08:06:15;8.13;;;3.03;;
45318;SDS011;31057;48.498;32.260;2022-07-22T08:09:17;6.63;;;3.10;;
45318;SDS011;31057;48.498;32.260;2022-07-22T08:12:19;3.90;;;2.58;;
45318;SDS011;31057;48.498;32.260;2022-07-22T08:15:21;6.15;;;2.17;;
45318;SDS011;31057;48.498;32.260;2022-07-22T08:18:26;4.82;;;2.22;;
45318;SDS011;31057;48.498;32.260;2022-07-22T08:21:29;3.30;;;2.25;;
45318;SDS011;31057;48.498;32.260;2022-07-22T08:24:31;3.90;;;2.40;;
45318;SDS011;31057;48.498;32.260;2022-07-22T08:30:36;3.90;;;2.45;;
45318;SDS011;31057;48.498;32.260;2022-07-22T08:33:38;3.50;;;2.50;;
45318;SDS011;31057;48.498;32.260;2022-07-22T08:36:40;2.70;;;2.38;;
45318;SDS011;31057;48.498;32.260;2022-07-22T08:39:43;12.25;;;2.92;;
45318;SDS011;31057;48.498;32.260;2022-07-22T08:42:46;3.22;;;2.45;;
45318;SDS011;31057;48.498;32.260;2022-07-22T08:45:50;4.70;;;2.20;;
45318;SDS011;31057;48.498;32.260;2022-07-22T08:48:52;4.23;;;2.40;;
45318;SDS011;31057;48.498;32.260;2022-07-22T08:51:57;4.35;;;2.50;;
45318;SDS011;31057;48.498;32.260;2022-07-22T08:55:01;3.42;;;2.50;;
45318;SDS011;31057;48.498;32.260;2022-07-22T08:58:05;3.58;;;2.45;;
45318;SDS011;31057;48.498;32.260;2022-07-22T09:01:08;9.15;;;2.28;;
45318;SDS011;31057;48.498;32.260;2022-07-22T09:04:14;2.70;;;2.50;;
45318;SDS011;31057;48.498;32.260;2022-07-22T09:07:27;4.43;;;2.33;;
45318;SDS011;31057;48.498;32.260;2022-07-22T09:10:32;4.82;;;2.60;;
45318;SDS011;31057;48.498;32.260;2022-07-22T09:13:35;4.95;;;2.65;;
45318;SDS011;31057;48.498;32.260;2022-07-22T09:16:46;6.75;;;2.47;;
45318;SDS011;31057;48.498;32.260;2022-07-22T09:19:49;3.22;;;2.15;;
45318;SDS011;31057;48.498;32.260;2022-07-22T09:22:52;3.55;;;2.55;;
45318;SDS011;31057;48.498;32.260;2022-07-22T09:25:54;5.43;;;2.50;;
45318;SDS011;31057;48.498;32.260;2022-07-22T09:28:56;4.05;;;2.40;;
45318;SDS011;31057;48.498;32.260;2022-07-22T09:32:02;4.97;;;2.70;;
45318;SDS011;31057;48.498;32.260;2022-07-22T09:38:10;4.18;;;3.28;;
45318;SDS011;31057;48.498;32.260;2022-07-22T09:41:13;3.35;;;3.00;;
45318;SDS011;31057;48.498;32.260;2022-07-22T09:44:22;4.35;;;2.97;;
45318;SDS011;31057;48.498;32.260;2022-07-22T09:47:28;7.25;;;3.30;;
45318;SDS011;31057;48.498;32.260;2022-07-22T09:50:39;2.97;;;2.75;;
45318;SDS011;31057;48.498;32.260;2022-07-22T09:53:41;3.10;;;2.80;;
45318;SDS011;31057;48.498;32.260;2022-07-22T09:56:43;6.63;;;3.55;;
45318;SDS011;31057;48.498;32.260;2022-07-22T10:02:53;4.60;;;3.22;;
45318;SDS011;31057;48.498;32.260;2022-07-22T10:05:55;4.65;;;2.75;;
45318;SDS011;31057;48.498;32.260;2022-07-22T10:08:58;5.38;;;2.60;;
45318;SDS011;31057;48.498;32.260;2022-07-22T10:12:09;4.32;;;3.35;;
45318;SDS011;31057;48.498;32.260;2022-07-22T10:15:12;4.70;;;2.90;;
45318;SDS011;31057;48.498;32.260;2022-07-22T10:18:16;4.53;;;2.75;;
45318;SDS011;31057;48.498;32.260;2022-07-22T10:21:19;3.90;;;2.50;;
45318;SDS011;31057;48.498;32.260;2022-07-22T10:24:34;3.47;;;2.30;;
45318;SDS011;31057;48.498;32.260;2022-07-22T10:27:57;6.05;;;2.85;;
45318;SDS011;31057;48.498;32.260;2022-07-22T10:31:17;4.13;;;2.72;;
45318;SDS011;31057;48.498;32.260;2022-07-22T10:34:25;7.78;;;2.50;;
45318;SDS011;31057;48.498;32.260;2022-07-22T10:40:48;4.28;;;2.13;;
45318;SDS011;31057;48.498;32.260;2022-07-22T10:44:00;2.67;;;2.20;;
45318;SDS011;31057;48.498;32.260;2022-07-22T10:47:02;4.97;;;2.28;;
45318;SDS011;31057;48.498;32.260;2022-07-22T10:56:59;2.13;;;1.92;;
45318;SDS011;31057;48.498;32.260;2022-07-22T11:00:01;5.10;;;1.88;;
45318;SDS011;31057;48.498;32.260;2022-07-22T11:03:04;3.65;;;1.85;;
45318;SDS011;31057;48.498;32.260;2022-07-22T11:06:26;3.90;;;2.00;;
45318;SDS011;31057;48.498;32.260;2022-07-22T11:09:32;3.60;;;2.05;;
45318;SDS011;31057;48.498;32.260;2022-07-22T11:12:36;4.40;;;2.08;;
45318;SDS011;31057;48.498;32.260;2022-07-22T11:15:39;2.33;;;2.13;;
45318;SDS011;31057;48.498;32.260;2022-07-22T11:21:51;4.53;;;1.80;;
45318;SDS011;31057;48.498;32.260;2022-07-22T11:24:54;5.10;;;2.40;;
45318;SDS011;31057;48.498;32.260;2022-07-22T11:27:58;3.97;;;2.53;;
45318;SDS011;31057;48.498;32.260;2022-07-22T11:31:10;3.47;;;1.92;;
45318;SDS011;31057;48.498;32.260;2022-07-22T11:34:15;5.15;;;2.05;;
45318;SDS011;31057;48.498;32.260;2022-07-22T11:37:18;2.73;;;1.77;;
45318;SDS011;31057;48.498;32.260;2022-07-22T11:40:24;4.95;;;2.50;;
45318;SDS011;31057;48.498;32.260;2022-07-22T11:43:37;2.40;;;1.95;;
45318;SDS011;31057;48.498;32.260;2022-07-22T11:46:49;3.63;;;1.98;;
45318;SDS011;31057;48.498;32.260;2022-07-22T11:49:52;2.20;;;2.00;;
45318;SDS011;31057;48.498;32.260;2022-07-22T11:52:54;1.67;;;1.57;;
45318;SDS011;31057;48.498;32.260;2022-07-22T11:55:57;3.70;;;2.38;;
45318;SDS011;31057;48.498;32.260;2022-07-22T11:59:00;4.85;;;1.95;;
45318;SDS011;31057;48.498;32.260;2022-07-22T12:02:06;4.18;;;2.03;;
45318;SDS011;31057;48.498;32.260;2022-07-22T12:05:11;2.78;;;1.80;;
45318;SDS011;31057;48.498;32.260;2022-07-22T12:08:34;2.72;;;1.90;;
45318;SDS011;31057;48.498;32.260;2022-07-22T12:11:44;3.03;;;2.15;;
45318;SDS011;31057;48.498;32.260;2022-07-22T12:14:50;4.95;;;2.17;;
45318;SDS011;31057;48.498;32.260;2022-07-22T12:18:18;3.35;;;2.08;;
45318;SDS011;31057;48.498;32.260;2022-07-22T12:21:22;4.53;;;2.20;;
45318;SDS011;31057;48.498;32.260;2022-07-22T12:24:35;2.92;;;2.35;;
45318;SDS011;31057;48.498;32.260;2022-07-22T12:27:38;3.22;;;2.20;;
45318;SDS011;31057;48.498;32.260;2022-07-22T12:30:40;5.32;;;2.53;;
45318;SDS011;31057;48.498;32.260;2022-07-22T12:33:47;4.07;;;2.15;;
45318;SDS011;31057;48.498;32.260;2022-07-22T12:36:49;3.45;;;2.15;;
45318;SDS011;31057;48.498;32.260;2022-07-22T12:43:00;3.65;;;3.25;;
45318;SDS011;31057;48.498;32.260;2022-07-22T12:46:03;2.83;;;2.25;;
45318;SDS011;31057;48.498;32.260;2022-07-22T12:49:05;2.30;;;2.10;;
45318;SDS011;31057;48.498;32.260;2022-07-22T12:52:11;5.22;;;2.80;;
45318;SDS011;31057;48.498;32.260;2022-07-22T12:55:14;3.20;;;2.10;;
45318;SDS011;31057;48.498;32.260;2022-07-22T12:58:17;4.78;;;2.50;;
45318;SDS011;31057;48.498;32.260;2022-07-22T13:01:21;3.95;;;2.30;;
45318;SDS011;31057;48.498;32.260;2022-07-22T13:04:23;4.67;;;2.13;;
45318;SDS011;31057;48.498;32.260;2022-07-22T13:07:25;4.00;;;2.07;;
45318;SDS011;31057;48.498;32.260;2022-07-22T13:10:27;2.17;;;1.98;;
45318;SDS011;31057;48.498;32.260;2022-07-22T13:13:29;5.95;;;2.15;;
45318;SDS011;31057;48.498;32.260;2022-07-22T13:16:32;4.93;;;2.05;;
45318;SDS011;31057;48.498;32.260;2022-07-22T13:19:34;2.95;;;2.50;;
45318;SDS011;31057;48.498;32.260;2022-07-22T13:22:36;3.60;;;2.15;;
45318;SDS011;31057;48.498;32.260;2022-07-22T13:25:39;2.85;;;1.92;;
45318;SDS011;31057;48.498;32.260;2022-07-22T13:28:42;4.83;;;2.07;;
45318;SDS011;31057;48.498;32.260;2022-07-22T13:31:44;4.47;;;2.27;;
45318;SDS011;31057;48.498;32.260;2022-07-22T13:35:05;4.65;;;2.00;;
45318;SDS011;31057;48.498;32.260;2022-07-22T13:38:08;3.28;;;2.22;;
45318;SDS011;31057;48.498;32.260;2022-07-22T13:41:16;3.97;;;1.70;;
45318;SDS011;31057;48.498;32.260;2022-07-22T13:44:18;1.73;;;1.63;;
45318;SDS011;31057;48.498;32.260;2022-07-22T13:47:20;4.35;;;2.00;;
45318;SDS011;31057;48.498;32.260;2022-07-22T13:50:23;7.93;;;1.80;;
45318;SDS011;31057;48.498;32.260;2022-07-22T13:53:25;3.35;;;1.80;;
45318;SDS011;31057;48.498;32.260;2022-07-22T13:56:27;2.78;;;1.92;;
45318;SDS011;31057;48.498;32.260;2022-07-22T13:59:29;2.63;;;2.00;;
45318;SDS011;31057;48.498;32.260;2022-07-22T14:02:31;4.85;;;2.10;;
45318;SDS011;31057;48.498;32.260;2022-07-22T14:05:33;8.32;;;2.20;;
45318;SDS011;31057;48.498;32.260;2022-07-22T14:08:35;2.83;;;1.80;;
45318;SDS011;31057;48.498;32.260;2022-07-22T14:11:41;5.70;;;1.75;;
45318;SDS011;31057;48.498;32.260;2022-07-22T14:14:43;2.77;;;1.87;;
45318;SDS011;31057;48.498;32.260;2022-07-22T14:17:45;3.17;;;1.77;;
45318;SDS011;31057;48.498;32.260;2022-07-22T14:20:48;5.68;;;2.90;;
45318;SDS011;31057;48.498;32.260;2022-07-22T14:23:50;3.90;;;1.85;;
45318;SDS011;31057;48.498;32.260;2022-07-22T14:26:52;3.25;;;2.22;;
45318;SDS011;31057;48.498;32.260;2022-07-22T14:29:54;5.20;;;2.03;;
45318;SDS011;31057;48.498;32.260;2022-07-22T14:32:56;6.83;;;2.10;;
45318;SDS011;31057;48.498;32.260;2022-07-22T14:35:58;2.85;;;1.90;;
45318;SDS011;31057;48.498;32.260;2022-07-22T14:39:00;4.10;;;1.97;;
45318;SDS011;31057;48.498;32.260;2022-07-22T14:42:02;3.03;;;1.90;;
45318;SDS011;31057;48.498;32.260;2022-07-22T14:45:05;3.50;;;1.60;;
45318;SDS011;31057;48.498;32.260;2022-07-22T14:48:13;4.85;;;1.75;;
45318;SDS011;31057;48.498;32.260;2022-07-22T14:51:15;1.70;;;1.60;;
45318;SDS011;31057;48.498;32.260;2022-07-22T14:54:17;3.67;;;1.90;;
45318;SDS011;31057;48.498;32.260;2022-07-22T14:57:19;9.37;;;1.50;;
45318;SDS011;31057;48.498;32.260;2022-07-22T15:00:21;6.55;;;2.00;;
45318;SDS011;31057;48.498;32.260;2022-07-22T15:03:23;1.60;;;1.38;;
45318;SDS011;31057;48.498;32.260;2022-07-22T15:06:25;3.40;;;1.70;;
45318;SDS011;31057;48.498;32.260;2022-07-22T15:09:27;2.47;;;1.80;;
45318;SDS011;31057;48.498;32.260;2022-07-22T15:12:29;6.22;;;1.77;;
45318;SDS011;31057;48.498;32.260;2022-07-22T15:15:49;5.30;;;1.80;;
45318;SDS011;31057;48.498;32.260;2022-07-22T15:18:51;3.90;;;1.65;;
45318;SDS011;31057;48.498;32.260;2022-07-22T15:21:53;2.88;;;1.90;;
45318;SDS011;31057;48.498;32.260;2022-07-22T15:24:55;4.03;;;1.73;;
45318;SDS011;31057;48.498;32.260;2022-07-22T15:27:57;4.77;;;1.50;;
45318;SDS011;31057;48.498;32.260;2022-07-22T15:31:21;1.83;;;1.55;;
45318;SDS011;31057;48.498;32.260;2022-07-22T15:34:23;5.13;;;1.80;;
45318;SDS011;31057;48.498;32.260;2022-07-22T15:37:25;2.28;;;1.67;;
45318;SDS011;31057;48.498;32.260;2022-07-22T15:40:27;2.20;;;1.40;;
45318;SDS011;31057;48.498;32.260;2022-07-22T15:43:29;1.97;;;1.40;;
45318;SDS011;31057;48.498;32.260;2022-07-22T15:46:31;4.70;;;1.40;;
45318;SDS011;31057;48.498;32.260;2022-07-22T15:49:33;3.70;;;1.70;;
45318;SDS011;31057;48.498;32.260;2022-07-22T15:52:35;6.47;;;1.67;;
45318;SDS011;31057;48.498;32.260;2022-07-22T15:55:37;6.00;;;1.77;;
45318;SDS011;31057;48.498;32.260;2022-07-22T15:58:42;4.75;;;2.40;;
45318;SDS011;31057;48.498;32.260;2022-07-22T16:02:22;5.22;;;1.80;;
45318;SDS011;31057;48.498;32.260;2022-07-22T16:05:25;3.78;;;1.75;;
45318;SDS011;31057;48.498;32.260;2022-07-22T16:08:28;4.15;;;1.92;;
45318;SDS011;31057;48.498;32.260;2022-07-22T16:11:30;2.75;;;1.65;;
45318;SDS011;31057;48.498;32.260;2022-07-22T16:14:33;3.33;;;2.17;;
45318;SDS011;31057;48.498;32.260;2022-07-22T16:17:35;4.10;;;2.00;;
45318;SDS011;31057;48.498;32.260;2022-07-22T16:20:37;10.50;;;2.13;;
45318;SDS011;31057;48.498;32.260;2022-07-22T16:26:42;9.55;;;2.08;;
45318;SDS011;31057;48.498;32.260;2022-07-22T16:29:44;2.47;;;1.23;;
45318;SDS011;31057;48.498;32.260;2022-07-22T16:32:46;2.38;;;1.38;;
45318;SDS011;31057;48.498;32.260;2022-07-22T16:35:54;1.95;;;1.27;;
45318;SDS011;31057;48.498;32.260;2022-07-22T16:38:56;2.50;;;1.40;;
45318;SDS011;31057;48.498;32.260;2022-07-22T16:41:59;1.85;;;1.40;;
45318;SDS011;31057;48.498;32.260;2022-07-22T16:45:01;2.63;;;1.40;;
45318;SDS011;31057;48.498;32.260;2022-07-22T16:48:03;3.07;;;1.77;;
45318;SDS011;31057;48.498;32.260;2022-07-22T16:51:06;2.50;;;1.45;;
45318;SDS011;31057;48.498;32.260;2022-07-22T16:54:08;1.83;;;1.33;;
45318;SDS011;31057;48.498;32.260;2022-07-22T16:57:10;5.03;;;2.83;;
45318;SDS011;31057;48.498;32.260;2022-07-22T17:00:12;2.55;;;1.85;;
45318;SDS011;31057;48.498;32.260;2022-07-22T17:03:14;7.70;;;2.60;;
45318;SDS011;31057;48.498;32.260;2022-07-22T17:06:16;6.90;;;2.20;;
45318;SDS011;31057;48.498;32.260;2022-07-22T17:09:19;4.43;;;3.08;;
45318;SDS011;31057;48.498;32.260;2022-07-22T17:12:21;4.10;;;2.38;;
45318;SDS011;31057;48.498;32.260;2022-07-22T17:15:23;7.28;;;3.60;;
45318;SDS011;31057;48.498;32.260;2022-07-22T17:18:25;10.00;;;3.40;;
45318;SDS011;31057;48.498;32.260;2022-07-22T17:24:30;4.60;;;2.30;;
45318;SDS011;31057;48.498;32.260;2022-07-22T17:27:32;6.00;;;2.10;;
45318;SDS011;31057;48.498;32.260;2022-07-22T17:30:35;3.38;;;1.65;;
45318;SDS011;31057;48.498;32.260;2022-07-22T17:33:37;2.92;;;1.48;;
45318;SDS011;31057;48.498;32.260;2022-07-22T17:36:39;4.22;;;1.80;;
45318;SDS011;31057;48.498;32.260;2022-07-22T17:39:41;4.65;;;1.67;;
45318;SDS011;31057;48.498;32.260;2022-07-22T17:42:43;3.30;;;1.70;;
45318;SDS011;31057;48.498;32.260;2022-07-22T17:45:45;3.22;;;1.63;;
45318;SDS011;31057;48.498;32.260;2022-07-22T17:48:47;9.50;;;1.90;;
45318;SDS011;31057;48.498;32.260;2022-07-22T17:51:49;6.45;;;2.13;;
45318;SDS011;31057;48.498;32.260;2022-07-22T17:54:57;2.85;;;2.22;;
45318;SDS011;31057;48.498;32.260;2022-07-22T17:57:59;2.58;;;2.33;;
45318;SDS011;31057;48.498;32.260;2022-07-22T18:01:01;3.42;;;1.95;;
45318;SDS011;31057;48.498;32.260;2022-07-22T18:04:03;4.83;;;2.43;;
45318;SDS011;31057;48.498;32.260;2022-07-22T18:07:06;3.25;;;2.22;;
45318;SDS011;31057;48.498;32.260;2022-07-22T18:10:08;5.43;;;2.42;;
45318;SDS011;31057;48.498;32.260;2022-07-22T18:13:10;5.97;;;2.63;;
45318;SDS011;31057;48.498;32.260;2022-07-22T18:16:12;3.97;;;2.72;;
45318;SDS011;31057;48.498;32.260;2022-07-22T18:19:17;3.50;;;2.30;;
45318;SDS011;31057;48.498;32.260;2022-07-22T18:22:19;2.70;;;2.25;;
45318;SDS011;31057;48.498;32.260;2022-07-22T18:25:21;6.15;;;2.55;;
45318;SDS011;31057;48.498;32.260;2022-07-22T18:28:23;4.63;;;2.90;;
45318;SDS011;31057;48.498;32.260;2022-07-22T18:31:25;6.45;;;2.90;;
45318;SDS011;31057;48.498;32.260;2022-07-22T18:34:27;4.28;;;2.65;;
45318;SDS011;31057;48.498;32.260;2022-07-22T18:40:32;4.43;;;2.70;;
45318;SDS011;31057;48.498;32.260;2022-07-22T18:43:36;4.07;;;2.75;;
45318;SDS011;31057;48.498;32.260;2022-07-22T18:46:38;3.55;;;2.35;;
45318;SDS011;31057;48.498;32.260;2022-07-22T18:49:40;3.90;;;2.60;;